Time;durP1;ratioP1;P1;durP2;ratioP2;P2;SDS_P1;SDS_P2;PMS_P1;PMS_P2;Temp;Humidity;BMP_temperature;BMP_pressure;BME280_temperature;BME280_humidity;BME280_pressure;Samples;Min_cycle;Max_cycle;Signal;HPM_P1;HPM_P2
2022/09/23 00:00:48;;;;;;;0.60;0.60;;;19.60;56.60;;;;;;5085141;28;20020;-62
2022/09/23 00:03:20;;;;;;;1.35;0.65;;;19.60;56.10;;;;;;5067496;28;20208;-62
2022/09/23 00:06:00;;;;;;;0.80;0.70;;;19.60;56.10;;;;;;5085047;28;20032;-62
2022/09/23 00:08:26;;;;;;;1.40;0.52;;;19.60;56.70;;;;;;5084896;28;20062;-62
2022/09/23 00:10:52;;;;;;;1.63;0.70;;;19.60;56.10;;;;;;5084915;28;20017;-61
2022/09/23 00:13:17;;;;;;;0.60;0.60;;;19.60;56.20;;;;;;5084644;28;20101;-62
2022/09/23 00:15:43;;;;;;;1.23;0.80;;;19.60;56.10;;;;;;5084785;28;20017;-62
2022/09/23 00:18:09;;;;;;;0.88;0.85;;;19.60;56.00;;;;;;5066945;28;20021;-61
2022/09/23 00:20:35;;;;;;;1.17;0.80;;;19.60;56.10;;;;;;5084373;28;20029;-62
2022/09/23 00:23:01;;;;;;;0.70;0.70;;;19.60;56.10;;;;;;5084323;28;20028;-61
2022/09/23 00:25:28;;;;;;;1.42;0.80;;;19.60;56.10;;;;;;5084547;28;20017;-61
2022/09/23 00:27:55;;;;;;;0.70;0.70;;;19.60;56.10;;;;;;5084483;28;20040;-61
2022/09/23 00:30:22;;;;;;;1.63;0.70;;;19.60;56.10;;;;;;5084485;28;20016;-62
2022/09/23 00:32:48;;;;;;;0.60;0.50;;;19.60;56.10;;;;;;5085025;28;20038;-62
2022/09/23 00:35:14;;;;;;;0.73;0.68;;;19.60;56.10;;;;;;5084399;28;20024;-62
2022/09/23 00:37:40;;;;;;;0.70;0.70;;;19.60;56.00;;;;;;5084329;28;20024;-61
2022/09/23 00:40:07;;;;;;;0.55;0.55;;;19.60;56.10;;;;;;5084309;28;20119;-62
2022/09/23 00:42:33;;;;;;;0.70;0.70;;;19.60;56.10;;;;;;5084248;28;20343;-62
2022/09/23 00:44:59;;;;;;;0.60;0.60;;;19.60;56.10;;;;;;5084133;28;20028;-62
2022/09/23 00:47:28;;;;;;;0.57;0.57;;;19.60;56.10;;;;;;5084071;28;20048;-62
2022/09/23 00:50:20;;;;;;;;;;;19.60;56.10;;;;;;5084565;28;20046;-62
2022/09/23 00:52:48;;;;;;;0.40;0.40;;;19.60;56.10;;;;;;5081021;28;19900;-61
2022/09/23 00:55:24;;;;;;;1.02;0.70;;;19.60;56.00;;;;;;5084037;28;20013;-61
2022/09/23 00:57:53;;;;;;;0.60;0.60;;;19.60;56.10;;;;;;5083999;28;20016;-62
2022/09/23 01:00:20;;;;;;;0.55;0.55;;;19.60;56.10;;;;;;5083978;28;20308;-60
2022/09/23 01:02:46;;;;;;;1.65;0.50;;;19.60;56.10;;;;;;5083928;28;20083;-62
2022/09/23 01:05:12;;;;;;;0.82;0.77;;;19.60;56.10;;;;;;5083865;28;20082;-61
2022/09/23 01:07:38;;;;;;;0.60;0.60;;;19.50;56.00;;;;;;5083765;28;20095;-61
2022/09/23 01:10:05;;;;;;;0.70;0.43;;;19.50;56.10;;;;;;5083824;28;20209;-61
2022/09/23 01:12:57;;;;;;;0.63;0.63;;;19.50;56.10;;;;;;5083829;28;20017;-62
2022/09/23 01:15:38;;;;;;;1.48;0.85;;;19.50;56.10;;;;;;5083792;28;20039;-62
2022/09/23 01:18:36;;;;;;;0.45;0.45;;;19.50;56.10;;;;;;5083767;28;20212;-61
2022/09/23 01:21:11;;;;;;;1.40;0.70;;;19.50;56.10;;;;;;5083694;28;20021;-62
2022/09/23 01:24:04;;;;;;;0.73;0.63;;;19.50;56.00;;;;;;5083675;28;20035;-62
2022/09/23 01:27:04;;;;;;;0.85;0.75;;;19.50;56.10;;;;;;5083549;28;20076;-62
2022/09/23 01:29:36;;;;;;;0.52;0.40;;;19.50;56.10;;;;;;5069519;28;20212;-61
2022/09/23 01:32:15;;;;;;;0.57;0.50;;;19.50;56.10;;;;;;5083834;28;20019;-61
2022/09/23 01:34:57;;;;;;;0.70;0.70;;;19.50;56.10;;;;;;5083578;28;20069;-62
2022/09/23 01:37:43;;;;;;;0.90;0.70;;;19.50;56.00;;;;;;5083524;28;20016;-61
2022/09/23 01:40:20;;;;;;;0.70;0.70;;;19.50;56.00;;;;;;5083498;28;20016;-61
2022/09/23 01:43:05;;;;;;;0.75;0.75;;;19.50;56.10;;;;;;5083506;28;20012;-61
2022/09/23 01:45:42;;;;;;;0.65;0.65;;;19.50;56.10;;;;;;5065596;28;20016;-62
2022/09/23 01:48:28;;;;;;;0.73;0.70;;;19.50;56.10;;;;;;5083700;28;20040;-61
2022/09/23 01:51:22;;;;;;;0.70;0.70;;;19.50;56.10;;;;;;5083439;28;20016;-62
2022/09/23 01:54:03;;;;;;;0.47;0.47;;;19.40;56.20;;;;;;5083379;28;20239;-61
2022/09/23 01:56:41;;;;;;;1.08;0.85;;;19.50;56.10;;;;;;5083368;28;20082;-61
2022/09/23 01:59:34;;;;;;;0.55;0.55;;;19.40;56.10;;;;;;5083363;28;20028;-60
2022/09/23 02:02:40;;;;;;;0.77;0.60;;;19.40;56.10;;;;;;5083254;28;20086;-60
2022/09/23 02:05:13;;;;;;;0.73;0.70;;;19.40;56.10;;;;;;5041286;28;20026;-62
2022/09/23 02:07:50;;;;;;;0.90;0.80;;;19.40;56.00;;;;;;5076983;28;20032;-60
2022/09/23 02:10:24;;;;;;;0.60;0.60;;;19.40;56.10;;;;;;5083188;28;20053;-60
2022/09/23 02:12:53;;;;;;;0.70;0.70;;;19.40;56.00;;;;;;5083012;28;20020;-61
2022/09/23 02:15:27;;;;;;;0.43;0.43;;;19.40;56.10;;;;;;5083150;28;20040;-61
2022/09/23 02:18:02;;;;;;;0.70;0.70;;;19.40;56.10;;;;;;5083045;28;20255;-61
2022/09/23 02:20:33;;;;;;;1.00;0.90;;;19.40;56.20;;;;;;5083092;28;20088;-62
2022/09/23 02:23:12;;;;;;;0.68;0.68;;;19.40;56.10;;;;;;5083092;28;20308;-60
2022/09/23 02:26:01;;;;;;;0.52;0.50;;;19.40;56.10;;;;;;5082955;28;20028;-61
2022/09/23 02:28:27;;;;;;;0.88;0.60;;;19.40;56.10;;;;;;5082925;28;20016;-61
2022/09/23 02:31:36;;;;;;;1.08;0.98;;;19.40;56.10;;;;;;5082905;28;20054;-59
2022/09/23 02:34:08;;;;;;;0.80;0.70;;;19.40;56.20;;;;;;5021273;28;20318;-61
2022/09/23 02:36:43;;;;;;;0.60;0.60;;;19.30;56.00;;;;;;5021300;28;20258;-61
2022/09/23 02:39:12;;;;;;;1.17;0.77;;;19.40;56.10;;;;;;5058602;28;20039;-61
2022/09/23 02:42:13;;;;;;;0.60;0.60;;;19.40;56.10;;;;;;5082812;28;20207;-61
2022/09/23 02:44:39;;;;;;;0.75;0.75;;;19.30;56.10;;;;;;5075652;28;20039;-61
2022/09/23 02:47:05;;;;;;;0.73;0.50;;;19.30;56.10;;;;;;5086376;28;20190;-62
2022/09/23 02:49:34;;;;;;;0.85;0.85;;;19.30;56.10;;;;;;5086373;28;20093;-62
2022/09/23 02:52:03;;;;;;;0.85;0.70;;;19.30;56.20;;;;;;5086365;28;20313;-61
2022/09/23 02:54:31;;;;;;;0.77;0.70;;;19.30;56.10;;;;;;5086267;28;20095;-60
2022/09/23 02:57:00;;;;;;;0.65;0.65;;;19.30;56.10;;;;;;5086299;28;20016;-60
2022/09/23 02:59:26;;;;;;;0.52;0.52;;;19.30;56.10;;;;;;5086231;28;20020;-60
2022/09/23 03:02:33;;;;;;;0.88;0.60;;;19.30;56.20;;;;;;5086186;28;20021;-61
2022/09/23 03:05:24;;;;;;;1.08;0.73;;;19.30;56.10;;;;;;5086203;28;20016;-62
2022/09/23 03:08:28;;;;;;;0.63;0.50;;;19.30;56.10;;;;;;5077737;28;20037;-62
2022/09/23 03:11:09;;;;;;;0.50;0.50;;;19.30;56.20;;;;;;5086097;28;20027;-61
2022/09/23 03:13:50;;;;;;;0.70;0.70;;;19.30;56.10;;;;;;5085772;28;20248;-62
2022/09/23 03:16:35;;;;;;;0.80;0.80;;;19.30;56.10;;;;;;5085962;28;20036;-61
2022/09/23 03:19:25;;;;;;;0.90;0.80;;;19.30;56.10;;;;;;5085830;28;20045;-61
2022/09/23 03:21:59;;;;;;;;;;;19.30;56.10;;;;;;5086325;28;20012;-62
2022/09/23 03:24:30;;;;;;;0.50;0.50;;;19.30;56.20;;;;;;5085783;28;20185;-61
2022/09/23 03:26:59;;;;;;;0.73;0.60;;;19.30;56.20;;;;;;5085668;28;20047;-61
2022/09/23 03:29:25;;;;;;;0.75;0.60;;;19.30;56.10;;;;;;5085696;28;20028;-61
2022/09/23 03:31:51;;;;;;;1.05;0.75;;;19.20;56.00;;;;;;5085653;28;20271;-61
2022/09/23 03:34:22;;;;;;;0.63;0.63;;;19.20;56.10;;;;;;5085606;28;20016;-60
2022/09/23 03:36:59;;;;;;;0.68;0.68;;;19.30;56.20;;;;;;5085874;28;20020;-61
2022/09/23 03:39:45;;;;;;;0.70;0.70;;;19.20;56.10;;;;;;5085519;28;20219;-61
2022/09/23 03:42:17;;;;;;;1.23;0.98;;;19.20;56.10;;;;;;5085500;28;20012;-61
2022/09/23 03:44:47;;;;;;;1.10;0.85;;;19.20;56.10;;;;;;5085394;28;20330;-61
2022/09/23 03:47:15;;;;;;;0.98;0.63;;;19.20;56.10;;;;;;5085286;28;20051;-60
2022/09/23 03:49:49;;;;;;;0.90;0.80;;;19.20;56.10;;;;;;5085304;28;20020;-61
2022/09/23 03:52:19;;;;;;;1.05;0.85;;;19.20;56.20;;;;;;5085321;28;20040;-61
2022/09/23 03:54:45;;;;;;;1.00;0.70;;;19.20;56.20;;;;;;5085459;28;20036;-61
2022/09/23 03:57:12;;;;;;;1.23;0.73;;;19.20;56.10;;;;;;5084130;28;20349;-60
2022/09/23 03:59:38;;;;;;;0.63;0.63;;;19.20;56.20;;;;;;5085352;28;20024;-62
2022/09/23 04:02:05;;;;;;;0.60;0.60;;;19.20;56.10;;;;;;5085077;28;20024;-61
2022/09/23 04:04:33;;;;;;;0.75;0.60;;;19.20;56.10;;;;;;5067471;28;20016;-61
2022/09/23 04:06:59;;;;;;;0.57;0.55;;;19.20;56.20;;;;;;5084903;28;20044;-61
2022/09/23 04:09:25;;;;;;;0.95;0.88;;;19.20;56.20;;;;;;5084896;28;20017;-61
2022/09/23 04:11:52;;;;;;;1.10;0.90;;;19.20;56.20;;;;;;5084840;28;20016;-60
2022/09/23 04:14:19;;;;;;;0.80;0.75;;;19.20;56.30;;;;;;5056952;28;20056;-61
2022/09/23 04:16:45;;;;;;;0.52;0.50;;;19.20;56.20;;;;;;5064761;28;20108;-60
2022/09/23 04:19:13;;;;;;;0.63;0.60;;;19.20;56.20;;;;;;5064671;28;20021;-61
2022/09/23 04:21:39;;;;;;;0.75;0.65;;;19.20;56.30;;;;;;5064653;28;20044;-62
2022/09/23 04:24:05;;;;;;;1.92;0.95;;;19.20;56.20;;;;;;5064617;28;20082;-60
2022/09/23 04:26:32;;;;;;;0.95;0.82;;;19.10;56.20;;;;;;5064445;28;20024;-60
2022/09/23 04:28:58;;;;;;;1.02;0.70;;;19.10;56.20;;;;;;5064534;28;20021;-62
2022/09/23 04:31:24;;;;;;;0.95;0.88;;;19.20;56.20;;;;;;5064507;28;20205;-62
2022/09/23 04:33:52;;;;;;;1.10;0.75;;;19.10;56.20;;;;;;5064423;28;20072;-62
2022/09/23 04:36:18;;;;;;;0.83;0.83;;;19.20;56.20;;;;;;5064415;28;20028;-62
2022/09/23 04:38:45;;;;;;;0.80;0.60;;;19.10;56.20;;;;;;5064314;28;20213;-62
2022/09/23 04:41:12;;;;;;;0.65;0.65;;;19.20;56.20;;;;;;5064312;28;20021;-61
2022/09/23 04:43:38;;;;;;;0.65;0.63;;;19.10;56.20;;;;;;5064260;28;20079;-61
2022/09/23 04:46:05;;;;;;;0.65;0.52;;;19.10;56.20;;;;;;5064523;28;20020;-61
2022/09/23 04:48:32;;;;;;;0.70;0.60;;;19.10;56.20;;;;;;5064093;28;20017;-62
2022/09/23 04:51:02;;;;;;;0.65;0.65;;;19.10;56.20;;;;;;5064122;28;20021;-61
2022/09/23 04:53:28;;;;;;;0.80;0.70;;;19.10;56.20;;;;;;5064096;28;20235;-61
2022/09/23 04:55:59;;;;;;;1.02;0.93;;;19.10;56.10;;;;;;5064016;28;20051;-62
2022/09/23 04:58:24;;;;;;;1.02;0.80;;;19.10;56.10;;;;;;5064021;28;20028;-61
2022/09/23 05:00:50;;;;;;;0.80;0.60;;;19.10;56.20;;;;;;5063930;28;20021;-61
2022/09/23 05:03:16;;;;;;;0.82;0.82;;;19.10;56.10;;;;;;5064203;28;20029;-61
2022/09/23 05:05:42;;;;;;;0.82;0.82;;;19.10;56.10;;;;;;5063867;28;20087;-61
2022/09/23 05:08:08;;;;;;;0.47;0.47;;;19.10;56.10;;;;;;5063503;28;20025;-61
2022/09/23 05:10:34;;;;;;;1.00;0.90;;;19.10;56.10;;;;;;5064341;28;20100;-62
2022/09/23 05:12:59;;;;;;;0.80;0.80;;;19.10;56.20;;;;;;5045963;28;20431;-61
2022/09/23 05:15:25;;;;;;;0.60;0.60;;;19.10;56.20;;;;;;5082751;28;20041;-61
2022/09/23 05:17:51;;;;;;;0.65;0.60;;;19.10;56.20;;;;;;5083710;28;20020;-61
2022/09/23 05:20:18;;;;;;;0.60;0.60;;;19.10;56.20;;;;;;5083686;28;20035;-61
2022/09/23 05:22:44;;;;;;;0.75;0.75;;;19.10;56.10;;;;;;5083666;28;20020;-61
2022/09/23 05:25:10;;;;;;;1.02;0.93;;;19.10;56.10;;;;;;5083624;28;20028;-61
2022/09/23 05:27:35;;;;;;;0.85;0.73;;;19.10;56.10;;;;;;5083513;28;20024;-61
2022/09/23 05:30:01;;;;;;;0.75;0.75;;;19.10;56.10;;;;;;5083861;28;20326;-61
2022/09/23 05:32:27;;;;;;;0.90;0.90;;;19.10;56.10;;;;;;5083596;28;20017;-61
2022/09/23 05:34:54;;;;;;;0.77;0.77;;;19.10;56.10;;;;;;5083570;28;20066;-60
2022/09/23 05:37:20;;;;;;;0.80;0.80;;;19.10;56.10;;;;;;5083524;28;20084;-61
2022/09/23 05:39:46;;;;;;;0.90;0.80;;;19.10;56.10;;;;;;5083506;28;20027;-62
2022/09/23 05:42:12;;;;;;;0.68;0.68;;;19.10;56.20;;;;;;5083463;28;20020;-62
2022/09/23 05:44:38;;;;;;;1.75;0.77;;;19.10;56.10;;;;;;5083439;28;20080;-61
2022/09/23 05:47:04;;;;;;;0.85;0.75;;;19.10;56.10;;;;;;5083589;28;20036;-61
2022/09/23 05:49:29;;;;;;;1.23;0.80;;;19.10;56.20;;;;;;5083397;28;20072;-61
2022/09/23 05:51:55;;;;;;;0.60;0.60;;;19.10;56.10;;;;;;5083382;28;20197;-60
2022/09/23 05:54:21;;;;;;;0.70;0.70;;;19.10;56.10;;;;;;5083350;28;20239;-61
2022/09/23 05:56:47;;;;;;;0.75;0.70;;;19.10;56.10;;;;;;5083353;28;20027;-61
2022/09/23 05:59:12;;;;;;;0.60;0.60;;;19.10;56.10;;;;;;5083308;28;20202;-62
2022/09/23 06:01:39;;;;;;;1.08;0.77;;;19.10;56.10;;;;;;5083279;28;20074;-61
2022/09/23 06:04:06;;;;;;;1.02;0.82;;;19.10;56.10;;;;;;5083252;28;20052;-61
2022/09/23 06:06:38;;;;;;;0.93;0.73;;;19.10;56.10;;;;;;5083128;28;20088;-63
2022/09/23 06:09:05;;;;;;;0.82;0.80;;;19.10;56.00;;;;;;5083527;28;20016;-62
2022/09/23 06:11:33;;;;;;;1.30;0.85;;;19.10;56.00;;;;;;5083177;28;20196;-61
2022/09/23 06:13:59;;;;;;;0.68;0.68;;;19.00;56.10;;;;;;5083040;28;20052;-61
2022/09/23 06:16:26;;;;;;;0.77;0.77;;;19.10;56.00;;;;;;5083159;28;20376;-61
2022/09/23 06:18:52;;;;;;;0.90;0.77;;;19.10;56.00;;;;;;5083094;28;20048;-61
2022/09/23 06:21:18;;;;;;;0.68;0.60;;;19.10;56.00;;;;;;5086998;28;20031;-61
2022/09/23 06:23:45;;;;;;;0.60;0.60;;;19.10;56.00;;;;;;5086985;28;20020;-61
2022/09/23 06:26:13;;;;;;;0.95;0.90;;;19.10;56.10;;;;;;5086912;28;20080;-61
2022/09/23 06:28:40;;;;;;;;;;;19.10;56.00;;;;;;5087211;28;20048;-60
2022/09/23 06:31:14;;;;;;;0.73;0.50;;;19.00;56.10;;;;;;5087063;28;19901;-62
2022/09/23 06:33:44;;;;;;;0.85;0.80;;;19.10;56.00;;;;;;5086823;28;20023;-62
2022/09/23 06:36:12;;;;;;;1.38;1.00;;;19.10;56.00;;;;;;5086727;28;20017;-62
2022/09/23 06:38:47;;;;;;;0.98;0.80;;;19.10;55.90;;;;;;5086633;28;20024;-61
2022/09/23 06:41:13;;;;;;;0.50;0.50;;;19.10;56.00;;;;;;5086715;28;20178;-63
2022/09/23 06:43:39;;;;;;;1.13;0.80;;;19.10;55.90;;;;;;5086562;28;20016;-62
2022/09/23 06:46:06;;;;;;;1.25;1.08;;;19.10;56.00;;;;;;5086554;28;20266;-62
2022/09/23 06:48:34;;;;;;;0.80;0.80;;;19.10;56.00;;;;;;5086433;28;20073;-62
2022/09/23 06:51:03;;;;;;;1.13;1.02;;;19.10;56.00;;;;;;5086468;28;20019;-61
2022/09/23 06:53:33;;;;;;;2.13;0.80;;;19.10;56.00;;;;;;5086391;28;20331;-61
2022/09/23 06:56:05;;;;;;;1.05;0.95;;;19.10;55.90;;;;;;5086354;28;20327;-61
2022/09/23 06:58:32;;;;;;;0.70;0.70;;;19.10;56.00;;;;;;5086282;28;20243;-61
2022/09/23 07:01:07;;;;;;;0.90;0.80;;;19.10;56.00;;;;;;5086212;28;20025;-61
2022/09/23 07:03:33;;;;;;;1.08;0.60;;;19.10;56.00;;;;;;5086258;28;20028;-62
2022/09/23 07:06:00;;;;;;;0.55;0.55;;;19.10;55.90;;;;;;5086155;28;20021;-61
2022/09/23 07:08:27;;;;;;;0.88;0.82;;;19.10;55.90;;;;;;5086042;28;20024;-62
2022/09/23 07:10:55;;;;;;;0.95;0.80;;;19.10;55.90;;;;;;5086089;28;20386;-61
2022/09/23 07:13:21;;;;;;;0.90;0.80;;;19.10;55.90;;;;;;5085856;28;20015;-62
2022/09/23 07:15:57;;;;;;;1.05;0.95;;;19.10;55.90;;;;;;5086091;28;20188;-62
2022/09/23 07:18:24;;;;;;;0.90;0.73;;;19.10;55.80;;;;;;5086186;28;20021;-61
2022/09/23 07:20:56;;;;;;;0.93;0.73;;;19.10;55.90;;;;;;5085914;28;20080;-61
2022/09/23 07:23:24;;;;;;;0.65;0.65;;;19.10;55.90;;;;;;5085868;28;20016;-62
2022/09/23 07:25:50;;;;;;;0.82;0.82;;;19.20;55.80;;;;;;5086094;28;20020;-61
2022/09/23 07:28:19;;;;;;;0.82;0.82;;;19.20;55.70;;;;;;5085948;28;20095;-62
2022/09/23 07:30:45;;;;;;;0.90;0.90;;;19.10;55.90;;;;;;5085626;28;20021;-60
2022/09/23 07:33:12;;;;;;;0.65;0.65;;;19.10;56.00;;;;;;5085923;28;20126;-61
2022/09/23 07:35:41;;;;;;;1.05;0.90;;;19.10;56.20;;;;;;5085649;28;20023;-61
2022/09/23 07:38:08;;;;;;;0.80;0.70;;;19.00;56.20;;;;;;5085636;28;20043;-62
2022/09/23 07:40:34;;;;;;;0.95;0.95;;;19.00;56.20;;;;;;5085556;28;20028;-61
2022/09/23 07:43:03;;;;;;;1.35;0.70;;;19.00;56.30;;;;;;5085496;28;20013;-61
2022/09/23 07:45:30;;;;;;;0.90;0.70;;;19.00;56.30;;;;;;5085432;28;20328;-59
2022/09/23 07:47:56;;;;;;;1.70;1.00;;;19.10;56.30;;;;;;5085348;28;20035;-62
2022/09/23 07:50:22;;;;;;;1.25;0.90;;;19.00;56.40;;;;;;5085375;28;20016;-61
2022/09/23 07:52:51;;;;;;;2.28;1.10;;;19.10;56.20;;;;;;5085333;28;20016;-60
2022/09/23 07:55:18;;;;;;;5.55;1.30;;;19.10;56.30;;;;;;5084891;28;20019;-63
2022/09/23 07:57:45;;;;;;;1.08;0.68;;;19.20;56.40;;;;;;5099280;28;20079;-64
2022/09/23 08:00:12;;;;;;;9.73;2.22;;;19.20;56.30;;;;;;5084771;28;20304;-63
2022/09/23 08:02:39;;;;;;;2.90;1.25;;;19.10;54.50;;;;;;5081899;28;20046;-63
2022/09/23 08:05:05;;;;;;;2.03;1.60;;;19.10;56.10;;;;;;5066988;28;20016;-63
2022/09/23 08:07:33;;;;;;;1.73;1.23;;;19.20;55.60;;;;;;5083973;28;20041;-61
2022/09/23 08:09:59;;;;;;;1.45;0.98;;;19.20;55.90;;;;;;5083723;28;20008;-61
2022/09/23 08:12:26;;;;;;;1.20;1.02;;;19.20;56.30;;;;;;5084181;28;20304;-62
2022/09/23 08:14:52;;;;;;;0.73;0.70;;;19.20;56.30;;;;;;5084576;28;20044;-61
2022/09/23 08:17:17;;;;;;;2.95;1.10;;;19.10;56.30;;;;;;5084308;28;20193;-61
2022/09/23 08:19:43;;;;;;;10.80;2.00;;;19.10;56.30;;;;;;5084506;28;20016;-61
2022/09/23 08:22:11;;;;;;;2.20;1.10;;;19.10;56.40;;;;;;5084005;28;20028;-60
2022/09/23 08:24:36;;;;;;;5.07;1.08;;;19.10;56.50;;;;;;5084379;28;20012;-62
2022/09/23 08:27:02;;;;;;;0.70;0.70;;;19.20;57.10;;;;;;5098655;28;20324;-62
2022/09/23 08:29:28;;;;;;;1.70;1.00;;;19.10;56.40;;;;;;5104595;28;20012;-62
2022/09/23 08:31:54;;;;;;;4.32;0.82;;;19.20;56.50;;;;;;5104581;28;20020;-61
2022/09/23 08:34:21;;;;;;;2.83;0.93;;;19.20;56.50;;;;;;5104611;28;20008;-62
2022/09/23 08:36:47;;;;;;;2.58;0.90;;;19.20;56.60;;;;;;5085756;28;20290;-60
2022/09/23 08:39:15;;;;;;;2.70;0.80;;;19.20;56.60;;;;;;5104464;28;20024;-62
2022/09/23 08:42:00;;;;;;;1.20;0.88;;;19.20;56.50;;;;;;5103607;28;20020;-61
2022/09/23 08:44:52;;;;;;;3.22;1.35;;;19.20;56.50;;;;;;5104412;28;20023;-62
2022/09/23 08:47:21;;;;;;;6.03;1.13;;;19.20;56.40;;;;;;5104049;28;20019;-63
2022/09/23 08:49:59;;;;;;;4.85;0.98;;;19.20;56.50;;;;;;5104232;28;20228;-62
2022/09/23 08:52:41;;;;;;;3.97;0.90;;;19.20;56.70;;;;;;5103877;28;20023;-64
2022/09/23 08:55:12;;;;;;;4.60;1.10;;;19.20;56.50;;;;;;5104282;28;20023;-63
2022/09/23 08:58:06;;;;;;;2.95;1.60;;;19.20;56.90;;;;;;5103335;28;20227;-63
2022/09/23 09:00:40;;;;;;;12.73;1.20;;;19.30;57.10;;;;;;5086019;28;20020;-64
2022/09/23 09:03:23;;;;;;;3.17;1.33;;;19.30;57.30;;;;;;5104193;28;20212;-63
2022/09/23 09:05:52;;;;;;;10.30;2.08;;;19.30;57.30;;;;;;5103492;28;20031;-63
2022/09/23 09:08:30;;;;;;;3.88;1.23;;;19.30;57.00;;;;;;5103201;28;20086;-62
2022/09/23 09:10:57;;;;;;;10.20;1.27;;;19.30;56.90;;;;;;5104122;28;20020;-62
2022/09/23 09:13:32;;;;;;;10.13;1.30;;;19.30;57.20;;;;;;5103736;28;20024;-63
2022/09/23 09:16:10;;;;;;;2.88;1.23;;;19.30;57.00;;;;;;5103975;28;20012;-63
2022/09/23 09:18:43;;;;;;;16.63;1.58;;;19.30;57.10;;;;;;5103270;28;20169;-63
2022/09/23 09:21:13;;;;;;;3.63;1.40;;;19.30;57.10;;;;;;5103497;28;20024;-64
2022/09/23 09:23:53;;;;;;;71.85;9.07;;;19.30;57.00;;;;;;5104103;28;20027;-64
2022/09/23 09:26:34;;;;;;;34.17;3.97;;;19.30;57.10;;;;;;5073604;28;20031;-64
2022/09/23 09:29:12;;;;;;;32.92;3.97;;;19.30;57.30;;;;;;5065049;28;20017;-64
2022/09/23 09:31:42;;;;;;;56.67;5.63;;;19.30;57.60;;;;;;5081948;28;20200;-63
2022/09/23 09:34:23;;;;;;;47.70;6.28;;;19.40;57.70;;;;;;5083353;28;20372;-63
2022/09/23 09:36:56;;;;;;;39.53;5.50;;;19.40;57.90;;;;;;5083225;28;20029;-63
2022/09/23 09:39:22;;;;;;;40.63;3.25;;;19.40;57.90;;;;;;5083711;28;20221;-65
2022/09/23 09:41:50;;;;;;;25.35;2.78;;;19.40;58.00;;;;;;5082275;28;20083;-64
2022/09/23 09:44:37;;;;;;;;;;;19.40;58.20;;;;;;5083624;28;20024;-62
2022/09/23 09:47:19;;;;;;;32.47;4.03;;;19.40;58.30;;;;;;5083093;28;19905;-63
2022/09/23 09:49:52;;;;;;;57.63;5.88;;;19.40;58.50;;;;;;5083460;28;20337;-61
2022/09/23 09:52:22;;;;;;;29.35;4.28;;;19.40;58.80;;;;;;5082283;28;20059;-62
2022/09/23 09:54:49;;;;;;;28.63;4.15;;;19.40;58.80;;;;;;5084960;28;20016;-62
2022/09/23 09:57:43;;;;;;;20.30;3.83;;;19.40;58.70;;;;;;5087403;28;20039;-62
2022/09/23 10:00:32;;;;;;;56.50;6.47;;;19.40;59.20;;;;;;5087167;28;20020;-59
2022/09/23 10:03:25;;;;;;;51.47;5.35;;;19.40;58.20;;;;;;5086796;28;20019;-62
2022/09/23 10:05:53;;;;;;;18.58;3.97;;;19.40;58.40;;;;;;5076274;28;20254;-62
2022/09/23 10:08:34;;;;;;;41.90;4.15;;;19.50;58.80;;;;;;5086762;28;20024;-60
2022/09/23 10:11:14;;;;;;;20.77;3.08;;;19.50;58.60;;;;;;5086989;28;20013;-61
2022/09/23 10:13:41;;;;;;;23.30;2.80;;;19.50;58.80;;;;;;5086267;28;20121;-61
2022/09/23 10:16:08;;;;;;;24.38;3.42;;;19.50;59.00;;;;;;5086397;28;20024;-61
2022/09/23 10:18:46;;;;;;;10.60;2.45;;;19.50;59.10;;;;;;5086690;28;20020;-61
2022/09/23 10:21:14;;;;;;;;;;;19.50;59.10;;;;;;5087254;28;20020;-59
2022/09/23 10:23:45;;;;;;;15.20;2.78;;;19.50;59.10;;;;;;5086783;28;19942;-63
2022/09/23 10:26:16;;;;;;;20.83;2.60;;;19.50;59.20;;;;;;5086166;28;20301;-62
2022/09/23 10:28:51;;;;;;;14.68;2.90;;;19.50;58.90;;;;;;5085968;28;20244;-62
2022/09/23 10:31:27;;;;;;;31.58;4.07;;;19.60;59.50;;;;;;5086527;28;20027;-65
2022/09/23 10:33:59;;;;;;;24.45;2.45;;;19.60;58.80;;;;;;5086613;28;20008;-64
2022/09/23 10:36:26;;;;;;;17.92;3.10;;;19.60;58.70;;;;;;5086461;28;20017;-62
2022/09/23 10:48:27;;;;;;;19.92;2.47;;;19.70;58.10;;;;;;5086164;28;20354;-63
2022/09/23 10:50:55;;;;;;;14.07;2.17;;;19.70;58.20;;;;;;5086200;28;20304;-63
2022/09/23 10:53:40;;;;;;;20.10;2.70;;;19.70;58.00;;;;;;5085711;28;20040;-63
2022/09/23 10:56:39;;;;;;;29.08;5.30;;;19.70;58.30;;;;;;5086395;28;20017;-63
2022/09/23 10:59:32;;;;;;;24.30;3.05;;;19.70;58.30;;;;;;5041480;28;20024;-63
2022/09/23 11:02:26;;;;;;;37.67;4.95;;;19.70;58.40;;;;;;5067650;28;20048;-60
2022/09/23 11:05:01;;;;;;;19.70;3.75;;;19.70;58.90;;;;;;5074912;28;20016;-61
2022/09/23 11:07:26;;;;;;;13.63;3.05;;;19.70;58.70;;;;;;5085621;28;20028;-60
2022/09/23 11:10:10;;;;;;;21.70;2.85;;;19.70;58.50;;;;;;5084850;28;20008;-61
2022/09/23 11:13:11;;;;;;;23.67;2.38;;;19.70;58.40;;;;;;5086026;28;20069;-60
2022/09/23 11:16:09;;;;;;;17.75;2.83;;;19.70;58.60;;;;;;5054687;28;20075;-59
2022/09/23 11:18:43;;;;;;;22.52;2.95;;;19.70;58.30;;;;;;5079907;28;20092;-61
2022/09/23 11:21:47;;;;;;;14.10;2.38;;;19.70;58.10;;;;;;5085904;28;20016;-61
2022/09/23 11:24:50;;;;;;;20.23;3.13;;;19.80;57.90;;;;;;5085851;28;20019;-61
2022/09/23 11:27:32;;;;;;;18.60;2.67;;;19.80;57.90;;;;;;5085780;28;20020;-60
2022/09/23 11:30:21;;;;;;;18.15;3.10;;;19.80;57.80;;;;;;5085829;28;20044;-60
2022/09/23 11:32:47;;;;;;;25.65;4.00;;;19.80;57.60;;;;;;5085431;28;20350;-62
2022/09/23 11:35:32;;;;;;;12.43;2.78;;;19.90;57.60;;;;;;5085712;28;20079;-61
2022/09/23 11:38:14;;;;;;;11.13;2.30;;;19.90;57.70;;;;;;5085650;28;20016;-61
2022/09/23 11:40:42;;;;;;;17.73;2.75;;;19.90;57.60;;;;;;5085628;28;20020;-60
2022/09/23 11:43:14;;;;;;;23.27;3.47;;;19.90;57.60;;;;;;5085540;28;20017;-60
2022/09/23 11:45:50;;;;;;;12.90;2.47;;;19.90;57.60;;;;;;5085469;28;20016;-61
2022/09/23 11:48:35;;;;;;;15.30;2.90;;;19.90;57.40;;;;;;5085393;28;20335;-62
2022/09/23 11:51:10;;;;;;;20.48;3.10;;;20.00;57.50;;;;;;5085420;28;20024;-61
2022/09/23 11:53:56;;;;;;;17.95;3.78;;;19.90;57.50;;;;;;5085399;28;20012;-61
2022/09/23 11:56:34;;;;;;;16.23;2.47;;;19.90;57.50;;;;;;5085310;28;20016;-61
2022/09/23 11:59:36;;;;;;;24.60;3.05;;;19.90;57.50;;;;;;5085561;28;20018;-60
2022/09/23 12:02:24;;;;;;;20.83;2.85;;;20.00;57.50;;;;;;5077557;28;20024;-60
2022/09/23 12:05:05;;;;;;;16.77;2.53;;;19.90;57.50;;;;;;5085137;28;20092;-61
2022/09/23 12:07:52;;;;;;;12.40;3.13;;;19.90;57.50;;;;;;5085245;28;20024;-60
2022/09/23 12:10:20;;;;;;;23.30;3.23;;;20.00;57.40;;;;;;5085057;28;20013;-60
2022/09/23 12:13:07;;;;;;;14.45;3.55;;;20.00;57.40;;;;;;5084942;28;20085;-60
2022/09/23 12:15:36;;;;;;;11.73;2.40;;;20.00;57.20;;;;;;5084813;28;20050;-61
2022/09/23 12:18:20;;;;;;;13.85;2.63;;;20.00;57.30;;;;;;5083928;28;20016;-61
2022/09/23 12:21:00;;;;;;;10.63;3.60;;;20.10;57.20;;;;;;5084823;28;20027;-59
2022/09/23 12:23:50;;;;;;;9.73;2.00;;;20.10;57.10;;;;;;5084767;28;20024;-60
2022/09/23 12:26:22;;;;;;;14.52;2.65;;;20.00;57.20;;;;;;5084723;28;20040;-60
2022/09/23 12:28:52;;;;;;;15.02;2.08;;;20.00;57.30;;;;;;5066742;28;20091;-60
2022/09/23 12:31:29;;;;;;;12.18;2.58;;;20.00;57.30;;;;;;5084548;28;20013;-61
2022/09/23 12:33:59;;;;;;;9.73;1.95;;;20.10;57.20;;;;;;5084570;28;20035;-60
2022/09/23 12:36:31;;;;;;;6.68;2.15;;;20.10;57.20;;;;;;5084475;28;20077;-60
2022/09/23 12:39:14;;;;;;;7.78;1.92;;;20.10;57.10;;;;;;5066596;28;20044;-61
2022/09/23 12:41:48;;;;;;;13.60;2.70;;;20.10;57.00;;;;;;5084356;28;20020;-60
2022/09/23 12:44:41;;;;;;;13.73;1.73;;;20.10;57.00;;;;;;5084327;28;20020;-60
2022/09/23 12:47:28;;;;;;;19.00;2.92;;;20.20;57.10;;;;;;5066326;28;20024;-60
2022/09/23 12:49:55;;;;;;;12.50;2.55;;;20.20;56.90;;;;;;5074051;28;20332;-60
2022/09/23 12:52:25;;;;;;;15.15;2.13;;;20.30;56.90;;;;;;5084118;28;20020;-60
2022/09/23 12:54:55;;;;;;;5.60;1.88;;;20.30;56.60;;;;;;5084079;28;20047;-61
2022/09/23 12:57:33;;;;;;;8.18;1.70;;;20.30;56.60;;;;;;5084362;28;20016;-60
2022/09/23 13:00:11;;;;;;;10.45;2.08;;;20.30;56.50;;;;;;5084025;28;20028;-61
2022/09/23 13:08:21;;;;;;;8.20;2.47;;;20.60;55.80;;;;;;5083887;28;20019;-61
2022/09/23 13:10:57;;;;;;;7.65;1.65;;;20.70;55.70;;;;;;5083870;28;20023;-60
2022/09/23 13:13:39;;;;;;;6.63;1.58;;;20.70;55.70;;;;;;5083737;28;20189;-60
2022/09/23 13:16:29;;;;;;;8.77;2.20;;;20.80;55.40;;;;;;5083830;28;20089;-61
2022/09/23 13:19:06;;;;;;;9.57;2.95;;;21.00;55.00;;;;;;5083799;28;20016;-61
2022/09/23 13:21:45;;;;;;;9.90;3.15;;;21.20;54.50;;;;;;5083720;28;20079;-60
2022/09/23 13:24:19;;;;;;;5.50;2.45;;;21.30;54.10;;;;;;5083730;28;20054;-61
2022/09/23 13:26:56;;;;;;;10.35;2.35;;;21.50;53.90;;;;;;5083654;28;20035;-61
2022/09/23 13:29:51;;;;;;;11.73;2.45;;;21.10;54.40;;;;;;5083509;28;20016;-61
2022/09/23 13:32:18;;;;;;;9.93;2.47;;;20.80;55.30;;;;;;5083585;28;20020;-61